Windcrest — WDD3567 — position and weather

sailwx.info

Track history (hours):
 
Tides and Currents Weather Stations Pressure Air Temp Water Temp Dewpoint Dewpoint Depression Visibility Wind Speed Wind Dir Waves Ship Positions

Windcrest

Owner: Cromwell, LLC, Newport, RI. More information available from US FCC via Universal Licensing System and Coast Guard Vessel Documentation Center.

Last reported at 2018-Jun-18 08:33 UTC. Time now 2018-Jun-18 13:03 UTC.
Position N 41°02' W 073°33'.

Length 30 m; draft 5.2 m.

Type: Sailing vessel. MMSI: 367133230.

Date/timePositionNaut miles runAvg speedWind from/ knotsBaromVisibWave heightAir tempDewpointWater temp
2018-Jun-18 08:33N 41°02' W 073°33'0 0.0
2018-Jun-18 08:26N 41°02' W 073°33'0 0.0
2018-Jun-18 07:59N 41°02' W 073°33'  
2018-Jun-16 03:18N 41°03' W 073°02'310.0
2018-Jun-16 02:59N 41°04' W 072°58'510.0
2018-Jun-16 02:30N 41°05' W 072°51'510.2
2018-Jun-16 02:00N 41°06' W 072°45'510.0
2018-Jun-16 01:30N 41°07' W 072°38'510.0
2018-Jun-16 01:00N 41°08' W 072°32'5 9.9
2018-Jun-16 00:30N 41°09' W 072°25'5 9.5
2018-Jun-16 00:00N 41°10' W 072°19'5 9.7
2018-Jun-15 23:30N 41°10' W 072°13'7 9.2
2018-Jun-15 22:47N 41°09' W 072°04'  
2018-Jun-11 20:26N 27°01' W 079°57'511.8
2018-Jun-11 20:00N 26°56' W 079°58'611.6
2018-Jun-11 19:30N 26°50' W 079°59'5 8.7
2018-Jun-11 18:58N 26°46' W 080°02'2 3.9
2018-Jun-11 18:29N 26°44' W 080°03'0 0.0
2018-Jun-11 08:23N 26°44' W 080°03'0 0.0
2018-Jun-11 08:01N 26°44' W 080°03'0 0.0
2018-Jun-11 04:36N 26°44' W 080°03'0 0.0
2018-Jun-11 04:31N 26°44' W 080°03'0 0.0
2018-Jun-11 03:50N 26°44' W 080°03'0 0.0
2018-Jun-10 16:23N 26°44' W 080°03'1 0.4
2018-Jun-10 13:45N 26°44' W 080°03'1 3.0
2018-Jun-10 13:24N 26°45' W 080°03'0 0.0
2018-Jun-09 16:53N 26°44' W 080°03'2 4.2
2018-Jun-09 16:20N 26°46' W 080°01'0 0.8
2018-Jun-09 16:00N 26°46' W 080°01'  
Track history (hours):
 
Tides and Currents Weather Stations Pressure Air Temp Water Temp Dewpoint Dewpoint Depression Visibility Wind Speed Wind Dir Waves Ship Positions

Windcrest

Owner: Cromwell, LLC, Newport, RI. More information available from US FCC via Universal Licensing System and Coast Guard Vessel Documentation Center.

Last reported at 2018-Jun-18 08:33 UTC. Time now 2018-Jun-18 13:03 UTC.
Position N 41°02' W 073°33'.

Length 30 m; draft 5.2 m.

Type: Sailing vessel. MMSI: 367133230.

Date/timePositionNaut miles runAvg speedWind from/ knotsBaromVisibWave heightAir tempDewpointWater temp
2018-Jun-18 08:33N 41°02' W 073°33'0 0.0
2018-Jun-18 08:26N 41°02' W 073°33'0 0.0
2018-Jun-18 07:59N 41°02' W 073°33'  
2018-Jun-16 03:18N 41°03' W 073°02'310.0
2018-Jun-16 02:59N 41°04' W 072°58'510.0
2018-Jun-16 02:30N 41°05' W 072°51'510.2
2018-Jun-16 02:00N 41°06' W 072°45'510.0
2018-Jun-16 01:30N 41°07' W 072°38'510.0
2018-Jun-16 01:00N 41°08' W 072°32'5 9.9
2018-Jun-16 00:30N 41°09' W 072°25'5 9.5
2018-Jun-16 00:00N 41°10' W 072°19'5 9.7
2018-Jun-15 23:30N 41°10' W 072°13'7 9.2
2018-Jun-15 22:47N 41°09' W 072°04'  
2018-Jun-11 20:26N 27°01' W 079°57'511.8
2018-Jun-11 20:00N 26°56' W 079°58'611.6
2018-Jun-11 19:30N 26°50' W 079°59'5 8.7
2018-Jun-11 18:58N 26°46' W 080°02'2 3.9
2018-Jun-11 18:29N 26°44' W 080°03'0 0.0
2018-Jun-11 08:23N 26°44' W 080°03'0 0.0
2018-Jun-11 08:01N 26°44' W 080°03'0 0.0
2018-Jun-11 04:36N 26°44' W 080°03'0 0.0
2018-Jun-11 04:31N 26°44' W 080°03'0 0.0
2018-Jun-11 03:50N 26°44' W 080°03'0 0.0
2018-Jun-10 16:23N 26°44' W 080°03'1 0.4
2018-Jun-10 13:45N 26°44' W 080°03'1 3.0
2018-Jun-10 13:24N 26°45' W 080°03'0 0.0
2018-Jun-09 16:53N 26°44' W 080°03'2 4.2
2018-Jun-09 16:20N 26°46' W 080°01'0 0.8
2018-Jun-09 16:00N 26°46' W 080°01'  

Dump ship's entire track history